Time;durP1;ratioP1;P1;durP2;ratioP2;P2;SDS_P1;SDS_P2;PMS_P1;PMS_P2;Temp;Humidity;BMP_temperature;BMP_pressure;BME280_temperature;BME280_humidity;BME280_pressure;Samples;Min_cycle;Max_cycle;Signal;HPM_P1;HPM_P2
2023/01/14 00:07:01;;;;;;;5.20;1.05;;;5.80;99.90;;;;;;20790314;28;20026;-79
2023/01/14 00:17:03;;;;;;;11.45;1.75;;;5.70;99.90;;;;;;20797475;28;20109;-78
2023/01/14 00:27:04;;;;;;;10.18;1.80;;;5.70;99.90;;;;;;20819722;28;20025;-78
2023/01/14 00:37:04;;;;;;;;;;;5.70;99.90;;;;;;20828816;28;20035;-78
2023/01/14 00:47:05;;;;;;;8.52;1.90;;;5.60;99.90;;;;;;20827597;28;19971;-78
2023/01/14 00:57:07;;;;;;;;;;;5.70;99.90;;;;;;20814782;28;20029;-77
2023/01/14 01:07:13;;;;;;;10.27;1.10;;;5.80;99.90;;;;;;20825609;28;19921;-78
2023/01/14 01:17:14;;;;;;;;;;;5.90;99.90;;;;;;20827240;28;20025;-77
2023/01/14 01:27:17;;;;;;;7.80;1.50;;;5.90;99.90;;;;;;20829318;28;19913;-77
2023/01/14 01:37:18;;;;;;;8.73;1.70;;;5.80;99.90;;;;;;20831339;28;20052;-74
2023/01/14 01:47:22;;;;;;;16.30;1.70;;;5.70;99.90;;;;;;20824958;28;20508;-77
2023/01/14 01:57:25;;;;;;;13.35;1.70;;;5.60;99.90;;;;;;20802550;28;20047;-77
2023/01/14 02:07:28;;;;;;;7.20;1.30;;;5.70;99.90;;;;;;20833861;28;20037;-77
2023/01/14 02:18:10;;;;;;;9.60;1.50;;;5.70;99.90;;;;;;20838676;28;20116;-77
2023/01/14 02:28:49;;;;;;;4.70;1.03;;;5.60;99.90;;;;;;20747659;28;20050;-77
2023/01/14 02:39:14;;;;;;;12.13;1.55;;;5.40;99.90;;;;;;20730113;28;20042;-77
2023/01/14 02:49:21;;;;;;;9.30;1.38;;;5.30;99.90;;;;;;20730142;28;20682;-78
2023/01/14 02:59:41;;;;;;;5.93;1.10;;;5.10;99.90;;;;;;20823322;28;20041;-77
2023/01/14 03:10:09;;;;;;;7.28;1.20;;;4.80;99.90;;;;;;20817457;28;20120;-77
2023/01/14 03:20:29;;;;;;;8.43;1.83;;;4.50;99.90;;;;;;20834275;28;20087;-77
2023/01/14 03:30:37;;;;;;;7.53;1.30;;;4.30;99.90;;;;;;20828481;28;20025;-77
2023/01/14 03:40:41;;;;;;;17.08;2.00;;;4.30;99.90;;;;;;20833966;28;20044;-77
2023/01/14 03:51:03;;;;;;;9.52;1.05;;;4.30;99.90;;;;;;20830348;28;20438;-77
2023/01/14 04:01:17;;;;;;;8.02;1.67;;;4.10;99.90;;;;;;20833215;28;20033;-77
2023/01/14 04:11:18;;;;;;;15.68;2.08;;;3.90;99.90;;;;;;20831377;28;20488;-78
2023/01/14 04:21:23;;;;;;;7.72;1.63;;;3.80;99.90;;;;;;20828525;28;20557;-77
2023/01/14 04:31:24;;;;;;;8.95;1.70;;;3.80;99.90;;;;;;20828369;28;20438;-77
2023/01/14 04:51:46;;;;;;;7.72;1.50;;;4.20;99.90;;;;;;20827367;28;20044;-78
2023/01/14 05:01:47;;;;;;;5.95;1.17;;;4.30;99.90;;;;;;20828263;28;20128;-78
2023/01/14 05:11:49;;;;;;;10.90;1.63;;;4.40;99.90;;;;;;20827351;28;20460;-77
2023/01/14 05:21:50;;;;;;;7.97;2.03;;;4.30;99.90;;;;;;20829407;28;20034;-77
2023/01/14 05:31:51;;;;;;;9.25;1.42;;;4.20;99.90;;;;;;20809937;28;20076;-77
2023/01/14 05:52:11;;;;;;;6.70;1.50;;;4.30;99.90;;;;;;20841419;28;20108;-78
2023/01/14 06:22:55;;;;;;;6.55;1.30;;;4.50;99.90;;;;;;20839772;28;20074;-78
2023/01/14 06:32:56;;;;;;;17.48;2.65;;;4.50;99.90;;;;;;20838092;28;20037;-78
2023/01/14 06:42:56;;;;;;;8.30;1.92;;;4.60;99.90;;;;;;20811074;28;20112;-76
2023/01/14 06:53:03;;;;;;;9.13;1.98;;;4.50;99.90;;;;;;20836437;28;20113;-78
2023/01/14 07:03:04;;;;;;;18.17;2.20;;;4.60;99.90;;;;;;20836724;28;20082;-77
2023/01/14 07:13:05;;;;;;;14.88;2.28;;;4.50;99.90;;;;;;20840598;28;20057;-77
2023/01/14 07:23:07;;;;;;;13.05;1.58;;;4.60;99.90;;;;;;20835593;28;20038;-77
2023/01/14 07:33:07;;;;;;;13.90;3.33;;;4.70;99.90;;;;;;20835885;28;20105;-78
2023/01/14 07:43:09;;;;;;;17.48;4.45;;;4.70;99.90;;;;;;20841435;28;20030;-79
2023/01/14 07:53:10;;;;;;;18.65;5.07;;;5.00;99.90;;;;;;20898786;28;20040;-79
2023/01/14 08:03:11;;;;;;;;;;;5.40;99.90;;;;;;20907570;28;20029;-78
2023/01/14 08:13:13;;;;;;;8.13;2.03;;;5.60;99.90;;;;;;20843978;28;20292;-78
2023/01/14 08:23:13;;;;;;;12.80;2.20;;;5.20;99.90;;;;;;20830834;28;20304;-78
2023/01/14 08:33:15;;;;;;;13.18;2.40;;;5.20;99.90;;;;;;20851595;28;20033;-79
2023/01/14 08:43:16;;;;;;;18.60;2.20;;;5.20;99.90;;;;;;20853997;28;20067;-79
2023/01/14 08:53:17;;;;;;;11.43;1.95;;;5.10;99.90;;;;;;20857390;28;20076;-79
2023/01/14 09:03:19;;;;;;;;;;;5.20;99.90;;;;;;20849487;28;20026;-78
2023/01/14 09:23:39;;;;;;;13.45;3.70;;;5.60;99.90;;;;;;20847403;28;20048;-78
2023/01/14 09:33:40;;;;;;;9.43;2.70;;;5.80;99.90;;;;;;20848412;28;20037;-79
2023/01/14 09:43:41;;;;;;;;;;;5.90;99.90;;;;;;20847381;28;20030;-79
2023/01/14 09:54:02;;;;;;;16.42;3.28;;;6.30;99.90;;;;;;20816908;28;19913;-78
2023/01/14 10:04:16;;;;;;;51.60;24.98;;;6.20;99.90;;;;;;20792990;28;20030;-79
2023/01/14 10:14:23;;;;;;;23.05;12.57;;;6.00;99.90;;;;;;20846582;28;20045;-78
2023/01/14 10:24:27;;;;;;;9.95;2.80;;;6.20;99.90;;;;;;20921204;28;20044;-79
2023/01/14 10:34:36;;;;;;;10.27;2.50;;;6.40;99.90;;;;;;20945554;28;20051;-79
2023/01/14 10:44:43;;;;;;;9.77;1.90;;;6.80;99.90;;;;;;20845806;28;20097;-79
2023/01/14 10:55:16;;;;;;;15.30;4.13;;;6.90;99.90;;;;;;20818895;28;20026;-79
2023/01/14 11:05:34;;;;;;;14.90;4.03;;;6.70;99.90;;;;;;20838267;28;20128;-79
2023/01/14 11:15:38;;;;;;;10.18;3.30;;;6.60;99.90;;;;;;20847799;28;20403;-79
2023/01/14 11:25:41;;;;;;;7.85;2.80;;;6.80;99.90;;;;;;20851070;28;20034;-78
2023/01/14 11:35:49;;;;;;;12.75;3.15;;;7.10;99.90;;;;;;20844134;28;20025;-78
2023/01/14 11:46:10;;;;;;;9.85;2.42;;;7.70;99.90;;;;;;20853801;28;20113;-77
2023/01/14 11:56:20;;;;;;;7.22;2.28;;;8.00;99.90;;;;;;20825352;28;20037;-78
2023/01/14 12:06:28;;;;;;;4.40;1.92;;;8.00;99.90;;;;;;20857900;28;20032;-79
2023/01/14 12:16:49;;;;;;;8.77;2.03;;;7.90;99.90;;;;;;20881563;28;20087;-78
2023/01/14 12:26:55;;;;;;;10.75;2.20;;;8.60;99.90;;;;;;20899876;28;20120;-78
2023/01/14 12:37:03;;;;;;;8.95;1.70;;;8.30;99.90;;;;;;20843892;28;20396;-77
2023/01/14 12:47:05;;;;;;;9.82;2.10;;;8.20;99.90;;;;;;20859700;28;20033;-76
2023/01/14 12:57:17;;;;;;;7.55;1.98;;;8.50;99.90;;;;;;20871146;28;20068;-79
2023/01/14 13:07:26;;;;;;;6.45;1.83;;;8.80;99.90;;;;;;20827274;28;20033;-79
2023/01/14 13:17:38;;;;;;;8.23;2.30;;;8.40;99.90;;;;;;21012079;28;20062;-78
2023/01/14 13:27:43;;;;;;;13.45;2.55;;;8.00;99.90;;;;;;20978573;28;20029;-78
2023/01/14 13:37:46;;;;;;;5.82;1.75;;;7.70;99.90;;;;;;21025580;28;20036;-78
2023/01/14 13:47:49;;;;;;;15.63;2.65;;;7.70;99.90;;;;;;21054884;28;20032;-78
2023/01/14 13:57:54;;;;;;;6.30;1.80;;;7.80;99.90;;;;;;21036566;28;20055;-78
2023/01/14 14:08:20;;;;;;;9.18;2.47;;;7.90;99.90;;;;;;21044243;28;20032;-78
2023/01/14 14:18:46;;;;;;;14.88;2.20;;;7.90;99.90;;;;;;21031754;28;20033;-79
2023/01/14 14:28:52;;;;;;;8.98;2.47;;;7.90;99.90;;;;;;21034471;28;20130;-78
2023/01/14 14:38:55;;;;;;;13.75;2.47;;;7.90;99.90;;;;;;21023110;28;20040;-77
2023/01/14 14:48:58;;;;;;;7.90;2.20;;;7.70;99.90;;;;;;21051957;28;20040;-77
2023/01/14 14:58:59;;;;;;;7.20;2.08;;;7.60;99.90;;;;;;21056744;28;20032;-77
2023/01/14 15:09:03;;;;;;;6.60;1.40;;;7.60;99.90;;;;;;20930934;28;20066;-78
2023/01/14 15:19:09;;;;;;;9.05;2.00;;;7.40;99.90;;;;;;20924614;28;20641;-78
2023/01/14 15:29:18;;;;;;;10.23;2.53;;;7.30;99.90;;;;;;21017986;28;20038;-76
2023/01/14 15:39:20;;;;;;;7.15;1.80;;;7.30;99.90;;;;;;21007960;28;20036;-78
2023/01/14 15:49:25;;;;;;;28.03;2.73;;;7.30;99.90;;;;;;21041745;28;20027;-79
2023/01/14 15:59:29;;;;;;;16.10;6.10;;;7.40;99.90;;;;;;21059670;28;20279;-79
2023/01/14 16:09:32;;;;;;;15.23;5.93;;;7.40;99.90;;;;;;21005068;28;20039;-79
2023/01/14 16:19:34;;;;;;;12.55;4.53;;;7.40;99.90;;;;;;21013927;28;20023;-79
2023/01/14 16:29:37;;;;;;;6.93;3.50;;;7.20;99.90;;;;;;21004462;28;20059;-79
2023/01/14 16:39:38;;;;;;;12.60;3.63;;;6.80;99.90;;;;;;20988554;28;20498;-78
2023/01/14 16:49:42;;;;;;;29.55;9.07;;;6.90;99.90;;;;;;21005030;28;20517;-78
2023/01/14 16:59:42;;;;;;;16.48;3.95;;;7.00;99.90;;;;;;21087814;28;20043;-77
2023/01/14 17:09:44;;;;;;;10.75;3.92;;;6.90;99.90;;;;;;21071327;28;20406;-79
2023/01/14 17:19:45;;;;;;;12.00;5.50;;;7.00;99.90;;;;;;21088780;28;20035;-79
2023/01/14 17:29:46;;;;;;;;;;;6.70;99.90;;;;;;21009680;28;20036;-79
2023/01/14 17:39:47;;;;;;;16.13;5.23;;;6.50;99.90;;;;;;21113278;28;19915;-79
2023/01/14 17:49:48;;;;;;;;;;;6.40;99.90;;;;;;21072559;28;20044;-79
2023/01/14 17:59:51;;;;;;;61.55;24.23;;;6.40;99.90;;;;;;21023309;28;19957;-79
2023/01/14 18:09:51;;;;;;;25.95;11.38;;;6.30;99.90;;;;;;21038397;28;20403;-79
2023/01/14 18:19:54;;;;;;;27.95;10.57;;;6.30;99.90;;;;;;21004657;28;20040;-78
2023/01/14 18:29:55;;;;;;;26.85;9.60;;;6.50;99.90;;;;;;21056262;28;20133;-79
2023/01/14 18:39:56;;;;;;;16.77;7.72;;;6.50;99.90;;;;;;21029936;28;20039;-78
2023/01/14 18:49:59;;;;;;;103.43;36.28;;;6.60;99.90;;;;;;20999417;28;20478;-78
2023/01/14 19:00:00;;;;;;;221.15;70.63;;;6.60;99.90;;;;;;21024104;28;20039;-78
2023/01/14 19:10:03;;;;;;;30.83;11.43;;;6.50;99.90;;;;;;21039453;28;20460;-79
2023/01/14 19:20:04;;;;;;;15.60;5.45;;;6.60;99.90;;;;;;21041354;28;20039;-78
2023/01/14 19:30:07;;;;;;;13.35;4.20;;;6.50;99.90;;;;;;21050000;28;20032;-79
2023/01/14 19:40:08;;;;;;;11.23;3.97;;;6.60;99.90;;;;;;21008760;28;20036;-78
2023/01/14 19:50:10;;;;;;;12.18;3.97;;;7.00;99.90;;;;;;20987846;28;20025;-77
2023/01/14 20:00:13;;;;;;;3.92;1.77;;;7.90;99.90;;;;;;20986616;28;20031;-80
2023/01/14 20:10:14;;;;;;;2.15;0.68;;;8.40;99.90;;;;;;21094586;28;20140;-78
2023/01/14 20:20:17;;;;;;;1.73;0.77;;;9.00;99.90;;;;;;21049452;28;20123;-80
2023/01/14 20:30:21;;;;;;;1.45;0.40;;;9.20;99.90;;;;;;21036440;28;20035;-79
2023/01/14 20:40:24;;;;;;;1.52;0.80;;;9.20;99.90;;;;;;21093424;28;20039;-79
2023/01/14 20:50:25;;;;;;;4.35;1.80;;;9.00;99.90;;;;;;21046666;28;20050;-77
2023/01/14 21:00:27;;;;;;;6.35;2.15;;;8.80;99.90;;;;;;21008769;28;20029;-79
2023/01/14 21:10:28;;;;;;;3.40;1.57;;;8.80;99.90;;;;;;21004218;28;20029;-79
2023/01/14 21:30:50;;;;;;;1.27;0.73;;;8.20;99.90;;;;;;20988951;28;20431;-79
2023/01/14 21:51:15;;;;;;;3.92;0.70;;;8.20;99.90;;;;;;20989087;28;20396;-79
2023/01/14 22:01:19;;;;;;;2.10;0.82;;;8.10;99.90;;;;;;20982745;28;20065;-79
2023/01/14 22:11:20;;;;;;;3.25;1.75;;;8.00;99.90;;;;;;21002182;28;20059;-81
2023/01/14 22:21:21;;;;;;;1.90;0.70;;;8.00;99.90;;;;;;21009565;28;20029;-80
2023/01/14 22:31:22;;;;;;;0.70;0.63;;;8.00;99.90;;;;;;21031652;28;20024;-79
2023/01/14 22:41:23;;;;;;;2.08;0.90;;;8.00;99.90;;;;;;21011647;28;20059;-80
2023/01/14 22:51:24;;;;;;;2.17;0.97;;;8.00;99.90;;;;;;21013173;28;20036;-80
2023/01/14 23:01:25;;;;;;;2.67;1.00;;;7.80;99.90;;;;;;21021714;28;20411;-80
2023/01/14 23:11:27;;;;;;;1.17;0.60;;;7.80;99.90;;;;;;21026001;28;20131;-75
2023/01/14 23:31:48;;;;;;;1.25;1.02;;;7.60;99.90;;;;;;21014073;28;20032;-75
2023/01/14 23:41:49;;;;;;;1.30;0.73;;;7.70;99.90;;;;;;21015777;28;20025;-79
2023/01/14 23:51:49;;;;;;;2.10;0.50;;;7.60;99.90;;;;;;21010153;28;20028;-78
